createdAt,value
2023-02-11T00:01:32.136Z,29.67
2023-02-11T00:04:01.699Z,33.10
2023-02-11T00:06:32.579Z,30.35
2023-02-11T00:09:00.699Z,31.50
2023-02-11T00:11:30.436Z,27.95
2023-02-11T00:14:15.648Z,30.20
2023-02-11T00:16:43.494Z,28.15
2023-02-11T00:19:11.431Z,30.25
2023-02-11T00:21:40.250Z,30.35
2023-02-11T00:24:07.978Z,28.55
2023-02-11T00:26:36.275Z,31.48
2023-02-11T00:29:05.506Z,30.23
2023-02-11T00:31:34.408Z,26.75
2023-02-11T00:34:02.523Z,28.60
2023-02-11T00:36:30.974Z,29.90
2023-02-11T00:38:59.742Z,29.55
2023-02-11T00:41:29.137Z,31.50
2023-02-11T00:43:57.310Z,26.67
2023-02-11T00:46:25.343Z,29.10
2023-02-11T00:48:57.562Z,28.02
2023-02-11T00:51:28.176Z,24.70
2023-02-11T00:53:56.142Z,28.47
2023-02-11T00:56:24.143Z,27.48
2023-02-11T00:58:52.030Z,29.27
2023-02-11T01:01:20.463Z,26.55
2023-02-11T01:03:48.457Z,25.67
2023-02-11T01:06:16.890Z,28.33
2023-02-11T01:08:45.531Z,25.55
2023-02-11T01:11:17.854Z,28.83
2023-02-11T01:13:48.920Z,27.05
2023-02-11T01:16:18.315Z,18.83
2023-02-11T01:18:47.556Z,26.67
2023-02-11T01:21:18.448Z,26.45
2023-02-11T01:23:46.179Z,28.08
2023-02-11T01:26:14.173Z,25.35
2023-02-11T01:28:42.239Z,26.45
2023-02-11T01:31:10.064Z,27.45
2023-02-11T01:33:38.026Z,23.58
2023-02-11T01:36:08.759Z,27.10
2023-02-11T01:38:37.284Z,23.55
2023-02-11T01:41:09.765Z,26.17
2023-02-11T01:43:46.544Z,23.50
2023-02-11T01:46:31.385Z,22.65
2023-02-11T01:49:18.660Z,22.35
2023-02-11T01:52:02.062Z,24.98
2023-02-11T01:55:01.058Z,24.05
2023-02-11T01:57:34.420Z,23.95
2023-02-11T02:00:24.113Z,24.15
2023-02-11T02:03:31.813Z,23.85
2023-02-11T02:06:12.456Z,24.90
2023-02-11T02:09:18.563Z,25.50
2023-02-11T02:11:46.292Z,22.83
2023-02-11T02:14:15.840Z,22.73
2023-02-11T02:16:44.560Z,23.23
2023-02-11T02:20:03.111Z,25.35
2023-02-11T02:23:05.788Z,23.45
2023-02-11T02:26:23.894Z,26.13
2023-02-11T02:29:24.967Z,25.92
2023-02-11T02:32:35.840Z,25.92
2023-02-11T02:35:36.420Z,26.13
2023-02-11T02:38:30.265Z,24.15
2023-02-11T02:41:13.069Z,26.98
2023-02-11T02:43:48.369Z,27.52
2023-02-11T02:46:27.645Z,25.33
2023-02-11T02:48:57.264Z,24.65
2023-02-11T02:52:03.734Z,23.67
2023-02-11T02:55:09.363Z,23.58
2023-02-11T02:58:54.170Z,23.50
2023-02-11T03:01:55.151Z,21.45
2023-02-11T03:05:02.539Z,23.85
2023-02-11T03:07:55.145Z,23.10
2023-02-11T03:10:34.781Z,25.92
2023-02-11T03:13:04.532Z,22.20
2023-02-11T03:15:43.229Z,24.08
2023-02-11T03:18:17.531Z,23.80
2023-02-11T03:20:50.687Z,24.38
2023-02-11T03:23:29.943Z,22.77
2023-02-11T03:26:08.757Z,25.80
2023-02-11T03:29:04.522Z,25.00
2023-02-11T03:31:51.228Z,22.63
2023-02-11T03:34:33.255Z,20.92
2023-02-11T03:37:14.613Z,21.20
2023-02-11T03:39:59.861Z,22.15
2023-02-11T03:42:38.241Z,22.00
2023-02-11T03:45:12.357Z,21.27
2023-02-11T03:47:47.198Z,25.05
2023-02-11T03:50:16.581Z,22.17
2023-02-11T03:52:46.492Z,23.02
2023-02-11T03:55:18.569Z,22.05
2023-02-11T03:57:47.725Z,22.08
2023-02-11T04:00:16.127Z,21.55
2023-02-11T04:02:44.747Z,22.75
2023-02-11T04:05:16.464Z,22.08
2023-02-11T04:07:44.481Z,22.52
2023-02-11T04:10:13.033Z,20.63
2023-02-11T04:12:41.016Z,23.55
2023-02-11T04:15:09.752Z,22.25
2023-02-11T04:17:37.646Z,21.80
2023-02-11T04:20:05.817Z,23.80
2023-02-11T04:22:33.768Z,23.20
2023-02-11T04:25:01.600Z,20.80
2023-02-11T04:27:29.365Z,23.27
2023-02-11T04:29:57.095Z,22.42
2023-02-11T04:32:24.935Z,22.45
2023-02-11T04:34:54.241Z,25.38
2023-02-11T04:37:22.478Z,19.50
2023-02-11T04:39:50.208Z,21.10
2023-02-11T04:42:17.877Z,22.15
2023-02-11T04:44:45.609Z,22.10
2023-02-11T04:47:15.397Z,23.77
2023-02-11T04:49:43.379Z,22.25
2023-02-11T04:52:11.455Z,22.83
2023-02-11T04:54:40.549Z,20.63
2023-02-11T04:57:08.428Z,22.50
2023-02-11T04:59:36.101Z,21.17
2023-02-11T05:02:04.243Z,21.77
2023-02-11T05:04:32.164Z,21.90
2023-02-11T05:07:00.053Z,21.05
2023-02-11T05:09:27.809Z,22.80
2023-02-11T05:11:56.150Z,20.48
2023-02-11T05:14:23.935Z,19.85
2023-02-11T05:16:51.757Z,22.60
2023-02-11T05:19:19.758Z,20.00
2023-02-11T05:22:01.467Z,20.70
2023-02-11T05:24:32.042Z,21.50
2023-02-11T05:27:00.599Z,20.70
2023-02-11T05:29:28.606Z,17.55
2023-02-11T05:31:56.518Z,20.85
2023-02-11T05:34:24.224Z,21.38
2023-02-11T05:36:54.808Z,20.75
2023-02-11T05:39:22.598Z,21.85
2023-02-11T05:41:50.377Z,24.80
2023-02-11T05:44:18.224Z,21.58
2023-02-11T05:46:46.258Z,21.20
2023-02-11T05:49:14.171Z,22.30
2023-02-11T05:51:42.076Z,24.98
2023-02-11T05:54:10.753Z,24.95
2023-02-11T05:56:38.529Z,24.15
2023-02-11T05:59:06.615Z,26.17
2023-02-11T06:01:34.300Z,25.15
2023-02-11T06:04:05.052Z,22.85
2023-02-11T06:06:32.852Z,25.02
2023-02-11T06:09:00.652Z,25.45
2023-02-11T06:11:28.450Z,26.38
2023-02-11T06:13:56.228Z,26.38
2023-02-11T06:16:24.539Z,28.33
2023-02-11T06:18:52.404Z,29.75
2023-02-11T06:21:20.392Z,26.58
2023-02-11T06:23:49.144Z,29.13
2023-02-11T06:26:20.450Z,26.48
2023-02-11T06:28:48.739Z,27.67
2023-02-11T06:31:17.281Z,29.58
2023-02-11T06:33:45.218Z,27.90
2023-02-11T06:36:19.550Z,25.83
2023-02-11T06:38:48.410Z,28.60
2023-02-11T06:41:20.248Z,25.92
2023-02-11T06:43:48.814Z,28.45
2023-02-11T06:46:16.862Z,29.70
2023-02-11T06:48:45.123Z,27.25
2023-02-11T06:51:14.883Z,28.88
2023-02-11T06:53:46.168Z,27.40
2023-02-11T06:56:22.430Z,27.15
2023-02-11T06:58:55.467Z,27.35
2023-02-11T07:01:25.934Z,27.35
2023-02-11T07:03:54.618Z,23.42
2023-02-11T07:06:27.722Z,29.40
2023-02-11T07:08:56.433Z,28.05
2023-02-11T07:11:29.127Z,30.55
2023-02-11T07:14:03.877Z,28.77
2023-02-11T07:16:33.001Z,29.58
2023-02-11T07:19:01.309Z,29.67
2023-02-11T07:21:29.925Z,31.95
2023-02-11T07:23:57.700Z,32.50
2023-02-11T07:26:29.082Z,31.75
2023-02-11T07:31:29.190Z,28.52
2023-02-11T07:34:00.477Z,28.77
2023-02-11T07:36:31.846Z,29.38
2023-02-11T07:39:00.300Z,31.00
2023-02-11T07:41:28.440Z,33.90
2023-02-11T07:43:56.511Z,32.42
2023-02-11T07:46:27.758Z,31.08
2023-02-11T07:48:56.225Z,32.92
2023-02-11T07:51:29.378Z,31.20
2023-02-11T07:53:59.661Z,33.17
2023-02-11T07:56:29.512Z,35.00
2023-02-11T07:59:01.842Z,34.95
2023-02-11T08:01:31.110Z,36.58
2023-02-11T08:04:01.190Z,33.15
2023-02-11T08:06:33.494Z,32.40
2023-02-11T08:09:10.678Z,37.28
2023-02-11T08:11:38.494Z,35.90
2023-02-11T08:14:06.186Z,34.35
2023-02-11T08:16:36.840Z,33.72
2023-02-11T08:19:10.388Z,35.08
2023-02-11T08:21:39.449Z,35.72
2023-02-11T08:24:07.962Z,37.25
2023-02-11T08:26:36.543Z,35.70
2023-02-11T08:29:10.872Z,38.33
2023-02-11T08:31:42.299Z,34.30
2023-02-11T08:36:41.607Z,34.15
2023-02-11T08:39:19.668Z,40.33
2023-02-11T08:41:50.929Z,36.75
2023-02-11T08:44:20.352Z,27.23
2023-02-11T08:46:49.064Z,36.35
2023-02-11T08:49:17.575Z,34.83
2023-02-11T08:51:45.965Z,39.40
2023-02-11T08:54:33.680Z,36.67
2023-02-11T08:57:02.306Z,37.30
2023-02-11T08:59:39.918Z,36.70
2023-02-11T09:02:12.900Z,36.00
2023-02-11T09:04:41.198Z,36.47
2023-02-11T09:07:09.110Z,38.95
2023-02-11T09:09:36.851Z,38.22
2023-02-11T09:12:05.302Z,34.78
2023-02-11T09:14:33.150Z,33.67
2023-02-11T09:17:00.992Z,33.53
2023-02-11T09:19:28.968Z,31.50
2023-02-11T09:21:56.959Z,35.70
2023-02-11T09:24:24.876Z,35.33
2023-02-11T09:26:52.688Z,34.33
2023-02-11T09:29:20.774Z,30.25
2023-02-11T09:31:48.871Z,33.15
2023-02-11T09:34:16.900Z,33.45
2023-02-11T09:36:44.696Z,32.17
2023-02-11T09:39:17.346Z,32.47
2023-02-11T09:42:30.905Z,34.70
2023-02-11T09:45:00.543Z,30.00
2023-02-11T09:47:47.228Z,30.80
2023-02-11T09:50:30.398Z,34.08
2023-02-11T09:53:25.319Z,31.52
2023-02-11T09:55:57.144Z,29.65
2023-02-11T09:58:39.905Z,36.03
2023-02-11T10:01:44.603Z,31.05
2023-02-11T10:05:15.664Z,30.63
2023-02-11T10:08:20.176Z,29.98
2023-02-11T10:10:59.944Z,30.15
2023-02-11T10:13:33.351Z,31.33
2023-02-11T10:16:31.234Z,30.98
2023-02-11T10:19:36.587Z,32.40
2023-02-11T10:22:45.331Z,27.35
2023-02-11T10:25:24.177Z,28.77
2023-02-11T10:27:55.079Z,27.42
2023-02-11T10:30:59.924Z,25.67
2023-02-11T10:34:00.100Z,26.38
2023-02-11T10:36:33.807Z,25.15
2023-02-11T10:39:17.325Z,25.70
2023-02-11T10:41:55.345Z,24.63
2023-02-11T10:45:02.706Z,28.02
2023-02-11T10:47:37.532Z,26.48
2023-02-11T10:50:38.521Z,27.92
2023-02-11T10:53:26.476Z,17.38
2023-02-11T10:55:57.430Z,27.30
2023-02-11T10:58:54.484Z,21.92
2023-02-11T11:01:24.725Z,19.85
2023-02-11T11:03:53.526Z,19.33
2023-02-11T11:06:33.781Z,16.70
2023-02-11T11:09:02.056Z,18.73
2023-02-11T11:11:30.186Z,16.65
2023-02-11T11:14:03.288Z,18.20
2023-02-11T11:16:36.022Z,15.05
2023-02-11T11:19:07.024Z,23.05
2023-02-11T11:21:49.795Z,16.83
2023-02-11T11:24:40.539Z,17.27
2023-02-11T11:27:21.865Z,17.65
2023-02-11T11:29:55.933Z,17.63
2023-02-11T11:32:33.718Z,16.85
2023-02-11T11:35:09.549Z,14.68
2023-02-11T11:37:38.862Z,18.73
2023-02-11T11:40:32.108Z,20.08
2023-02-11T11:43:14.393Z,17.10
2023-02-11T11:45:59.427Z,20.42
2023-02-11T11:48:38.340Z,20.15
2023-02-11T11:51:11.776Z,19.92
2023-02-11T11:53:58.629Z,17.17
2023-02-11T11:56:35.563Z,18.13
2023-02-11T11:59:17.112Z,20.50
2023-02-11T12:02:25.487Z,18.73
2023-02-11T12:05:13.796Z,19.50
2023-02-11T12:08:08.505Z,18.48
2023-02-11T12:10:51.267Z,18.42
2023-02-11T12:13:27.598Z,19.60
2023-02-11T12:16:33.727Z,20.02
2023-02-11T12:19:24.762Z,20.23
2023-02-11T12:22:02.009Z,17.15
2023-02-11T12:24:56.269Z,18.80
2023-02-11T12:27:51.142Z,19.08
2023-02-11T12:30:39.518Z,18.63
2023-02-11T12:33:26.830Z,18.52
2023-02-11T12:36:55.348Z,19.38
2023-02-11T12:39:51.871Z,19.70
2023-02-11T12:42:56.843Z,18.90
2023-02-11T12:45:51.997Z,19.25
2023-02-11T12:49:04.731Z,21.25
2023-02-11T12:52:03.180Z,18.75
2023-02-11T12:54:44.875Z,17.67
2023-02-11T13:00:25.401Z,17.92
2023-02-11T13:03:17.881Z,18.42
2023-02-11T13:05:59.012Z,17.88
2023-02-11T13:08:50.108Z,16.02
2023-02-11T13:11:19.306Z,19.02
2023-02-11T13:14:12.473Z,18.40
2023-02-11T13:16:50.102Z,18.15
2023-02-11T13:19:44.207Z,15.77
2023-02-11T13:22:49.872Z,17.08
2023-02-11T13:25:48.406Z,17.83
2023-02-11T13:28:56.795Z,18.30
2023-02-11T13:31:27.482Z,20.20
2023-02-11T13:33:55.518Z,16.13
2023-02-11T13:36:32.902Z,19.85
2023-02-11T13:39:05.881Z,18.52
2023-02-11T13:41:39.171Z,18.60
2023-02-11T13:44:09.927Z,20.75
2023-02-11T13:47:01.274Z,17.57
2023-02-11T13:49:54.542Z,19.15
2023-02-11T13:52:28.747Z,17.95
2023-02-11T13:55:13.707Z,18.67
2023-02-11T13:57:42.585Z,18.05
2023-02-11T14:00:35.218Z,18.85
2023-02-11T14:03:56.233Z,17.15
2023-02-11T14:06:47.570Z,18.75
2023-02-11T14:09:17.195Z,16.85
2023-02-11T14:11:46.665Z,19.42
2023-02-11T14:14:28.152Z,18.50
2023-02-11T14:16:59.136Z,20.40
2023-02-11T14:19:45.913Z,17.00
2023-02-11T14:22:44.354Z,18.13
2023-02-11T14:25:26.829Z,17.55
2023-02-11T14:27:59.249Z,16.05
2023-02-11T14:30:56.253Z,18.05
2023-02-11T14:33:52.231Z,16.27
2023-02-11T14:36:53.676Z,17.35
2023-02-11T14:39:47.643Z,16.92
2023-02-11T14:42:27.047Z,19.08
2023-02-11T14:45:11.603Z,17.02
2023-02-11T14:48:14.561Z,19.67
2023-02-11T14:50:49.729Z,17.70
2023-02-11T14:53:43.043Z,15.25
2023-02-11T14:56:26.432Z,16.17
2023-02-11T14:59:02.723Z,20.13
2023-02-11T15:01:35.367Z,16.60
2023-02-11T15:04:06.422Z,16.55
2023-02-11T15:06:49.691Z,18.17
2023-02-11T15:09:29.386Z,17.52
2023-02-11T15:11:58.717Z,17.45
2023-02-11T15:14:34.492Z,19.27
2023-02-11T15:17:07.925Z,17.42
2023-02-11T15:19:41.555Z,17.67
2023-02-11T15:22:21.844Z,15.73
2023-02-11T15:25:14.894Z,16.02
2023-02-11T15:27:48.436Z,15.40
2023-02-11T15:30:22.399Z,17.92
2023-02-11T15:32:59.257Z,18.17
2023-02-11T15:35:31.440Z,17.52
2023-02-11T15:38:00.013Z,17.05
2023-02-11T15:40:33.071Z,16.50
2023-02-11T15:43:10.469Z,16.52
2023-02-11T15:46:01.818Z,16.98
2023-02-11T15:48:42.587Z,16.88
2023-02-11T15:51:35.471Z,18.58
2023-02-11T15:54:22.330Z,21.13
2023-02-11T15:56:59.744Z,23.08
2023-02-11T15:59:38.607Z,18.75
2023-02-11T16:02:32.613Z,22.42
2023-02-11T16:05:09.643Z,17.10
2023-02-11T16:07:46.325Z,20.85
2023-02-11T16:10:30.483Z,19.23
2023-02-11T16:13:25.731Z,18.95
2023-02-11T16:16:02.414Z,20.13
2023-02-11T16:18:52.155Z,19.23
2023-02-11T16:21:42.744Z,23.20
2023-02-11T16:24:28.020Z,19.92
2023-02-11T16:27:06.719Z,18.23
2023-02-11T16:29:37.581Z,19.20
2023-02-11T16:32:20.464Z,19.50
2023-02-11T16:34:49.147Z,24.42
2023-02-11T16:37:17.802Z,17.90
2023-02-11T16:39:45.525Z,16.77
2023-02-11T16:42:13.537Z,18.23
2023-02-11T16:44:41.330Z,18.85
2023-02-11T16:47:24.021Z,16.70
2023-02-11T16:49:52.264Z,17.70
2023-02-11T16:52:21.904Z,17.88
2023-02-11T16:54:50.073Z,17.42
2023-02-11T16:57:26.956Z,19.00
2023-02-11T16:59:56.344Z,18.58
2023-02-11T17:02:31.180Z,25.60
2023-02-11T17:05:06.292Z,32.35
2023-02-11T17:07:34.444Z,25.50
2023-02-11T17:10:02.195Z,26.50
2023-02-11T17:12:30.101Z,26.45
2023-02-11T17:14:57.954Z,28.95
2023-02-11T17:17:25.818Z,22.60
2023-02-11T17:19:53.620Z,20.45
2023-02-11T17:22:21.482Z,22.45
2023-02-11T17:24:49.546Z,20.75
2023-02-11T17:27:17.784Z,21.55
2023-02-11T17:29:45.552Z,20.25
2023-02-11T17:32:13.498Z,20.85
2023-02-11T17:34:41.385Z,20.33
2023-02-11T17:37:09.624Z,19.90
2023-02-11T17:39:39.114Z,21.75
2023-02-11T17:42:08.658Z,20.25
2023-02-11T17:44:37.268Z,21.17
2023-02-11T17:47:05.321Z,22.00
2023-02-11T17:49:33.261Z,21.50
2023-02-11T17:52:00.971Z,21.27
2023-02-11T17:54:28.789Z,21.02
2023-02-11T17:56:58.315Z,23.65
2023-02-11T17:59:28.435Z,19.38
2023-02-11T18:01:56.150Z,21.33
2023-02-11T18:04:24.146Z,20.60
2023-02-11T18:06:53.592Z,21.55
2023-02-11T18:09:21.397Z,22.85
2023-02-11T18:11:50.507Z,23.92
2023-02-11T18:14:22.272Z,24.30
2023-02-11T18:19:21.388Z,20.08
2023-02-11T18:21:50.473Z,22.20
2023-02-11T18:24:18.941Z,27.20
2023-02-11T18:26:46.731Z,26.63
2023-02-11T18:29:14.674Z,25.33
2023-02-11T18:31:42.506Z,27.88
2023-02-11T18:34:11.556Z,34.40
2023-02-11T18:36:39.562Z,44.75
2023-02-11T18:39:07.664Z,28.75
2023-02-11T18:41:35.724Z,29.40
2023-02-11T18:44:04.913Z,27.58
2023-02-11T18:46:33.073Z,31.30
2023-02-11T18:49:01.353Z,34.17
2023-02-11T18:51:31.788Z,32.88
2023-02-11T18:54:01.239Z,35.47
2023-02-11T18:56:29.281Z,35.58
2023-02-11T18:59:01.210Z,32.75
2023-02-11T19:01:31.218Z,36.10
2023-02-11T19:04:03.468Z,32.72
2023-02-11T19:06:37.870Z,32.85
2023-02-11T19:09:17.529Z,31.75
2023-02-11T19:11:51.383Z,29.00
2023-02-11T19:14:31.363Z,29.52
2023-02-11T19:17:04.013Z,24.38
2023-02-11T19:19:35.020Z,24.83
2023-02-11T19:22:08.532Z,23.23
2023-02-11T19:24:38.821Z,22.52
2023-02-11T19:27:06.855Z,21.08
2023-02-11T19:29:35.113Z,18.70
2023-02-11T19:32:05.807Z,18.92
2023-02-11T19:34:40.925Z,20.25
2023-02-11T19:37:12.537Z,20.50
2023-02-11T19:42:12.024Z,21.38
2023-02-11T19:44:39.900Z,23.10
2023-02-11T19:47:07.883Z,26.50
2023-02-11T19:49:36.007Z,25.63
2023-02-11T19:52:04.171Z,25.95
2023-02-11T19:54:31.970Z,23.52
2023-02-11T19:56:59.991Z,26.05
2023-02-11T19:59:27.841Z,26.13
2023-02-11T20:01:55.652Z,23.42
2023-02-11T20:04:25.099Z,23.02
2023-02-11T20:06:53.221Z,22.63
2023-02-11T20:09:22.712Z,25.27
2023-02-11T20:11:50.993Z,26.17
2023-02-11T20:14:19.214Z,28.83
2023-02-11T20:16:49.841Z,26.63
2023-02-11T20:19:21.585Z,24.20
2023-02-11T20:21:53.328Z,25.63
2023-02-11T20:26:51.590Z,25.67
2023-02-11T20:29:19.430Z,26.23
2023-02-11T20:31:49.194Z,25.95
2023-02-11T20:34:18.110Z,26.38
2023-02-11T20:36:52.123Z,25.65
2023-02-11T20:39:22.670Z,25.30
2023-02-11T20:41:52.310Z,24.73
2023-02-11T20:44:23.654Z,23.48
2023-02-11T20:46:54.071Z,21.15
2023-02-11T20:49:24.828Z,20.70
2023-02-11T20:51:53.868Z,19.90
2023-02-11T20:54:23.581Z,22.25
2023-02-11T20:56:55.921Z,18.55
2023-02-11T20:59:24.188Z,18.45
2023-02-11T21:01:55.799Z,16.25
2023-02-11T21:04:27.182Z,20.52
2023-02-11T21:07:01.586Z,17.83
2023-02-11T21:09:32.385Z,13.02
2023-02-11T21:12:01.803Z,17.50
2023-02-11T21:14:30.150Z,15.70
2023-02-11T21:16:58.143Z,13.93
2023-02-11T21:19:26.251Z,15.70
2023-02-11T21:21:55.272Z,18.50
2023-02-11T21:24:23.786Z,16.38
2023-02-11T21:26:51.767Z,15.50
2023-02-11T21:29:19.578Z,19.15
2023-02-11T21:31:47.373Z,21.88
2023-02-11T21:34:16.151Z,22.70
2023-02-11T21:36:45.255Z,24.38
2023-02-11T21:39:14.849Z,26.35
2023-02-11T21:41:42.711Z,26.33
2023-02-11T21:44:11.602Z,26.70
2023-02-11T21:46:39.792Z,24.58
2023-02-11T21:49:07.544Z,26.17
2023-02-11T21:51:35.900Z,29.77
2023-02-11T21:54:04.080Z,26.73
2023-02-11T21:56:34.282Z,26.40
2023-02-11T21:59:02.893Z,31.80
2023-02-11T22:01:35.513Z,26.30
2023-02-11T22:04:04.113Z,37.53
2023-02-11T22:06:34.581Z,39.17
2023-02-11T22:09:05.936Z,38.38
2023-02-11T22:11:34.114Z,34.33
2023-02-11T22:14:02.274Z,35.97
2023-02-11T22:16:30.836Z,29.08
2023-02-11T22:18:58.988Z,25.83
2023-02-11T22:21:26.755Z,21.77
2023-02-11T22:23:55.816Z,21.30
2023-02-11T22:26:26.360Z,20.90
2023-02-11T22:28:54.896Z,21.35
2023-02-11T22:31:27.206Z,26.67
2023-02-11T22:33:56.355Z,24.02
2023-02-11T22:36:36.582Z,21.77
2023-02-11T22:39:11.103Z,23.10
2023-02-11T22:41:41.401Z,17.42
2023-02-11T22:44:10.141Z,15.93
2023-02-11T22:46:38.702Z,15.57
2023-02-11T22:49:07.423Z,15.93
2023-02-11T22:51:35.211Z,15.20
2023-02-11T22:54:06.821Z,13.75
2023-02-11T22:56:35.790Z,15.05
2023-02-11T22:59:07.356Z,15.25
2023-02-11T23:01:35.513Z,17.20
2023-02-11T23:04:06.609Z,17.50
2023-02-11T23:06:35.039Z,18.98
2023-02-11T23:09:08.746Z,17.65
2023-02-11T23:11:36.768Z,16.40
2023-02-11T23:14:05.200Z,16.65
2023-02-11T23:16:34.692Z,15.23
2023-02-11T23:19:08.245Z,16.67
2023-02-11T23:21:38.550Z,15.68
2023-02-11T23:24:12.838Z,15.70
2023-02-11T23:26:42.493Z,15.93
2023-02-11T23:29:11.258Z,23.27
2023-02-11T23:31:43.894Z,17.55
2023-02-11T23:34:14.989Z,17.48
2023-02-11T23:36:44.368Z,17.60
2023-02-11T23:39:15.875Z,17.73
2023-02-11T23:44:12.389Z,17.33
2023-02-11T23:46:40.095Z,18.23
2023-02-11T23:49:07.982Z,22.33
2023-02-11T23:51:36.081Z,20.25
2023-02-11T23:54:04.110Z,23.00
2023-02-11T23:56:31.932Z,22.10
2023-02-11T23:58:59.786Z,22.02
